Time;durP1;ratioP1;P1;durP2;ratioP2;P2;SDS_P1;SDS_P2;PMS_P1;PMS_P2;Temp;Humidity;BMP_temperature;BMP_pressure;BME280_temperature;BME280_humidity;BME280_pressure;Samples;Min_cycle;Max_cycle;Signal;HPM_P1;HPM_P2
2022/05/01 00:01:16;;;;;;;9.57;8.43;;;;;;;6.05;92.30;102421.94;4994013;28;20472;-45
2022/05/01 00:03:44;;;;;;;11.80;8.13;;;;;;;5.99;92.57;102424.25;4994657;28;20430;-49
2022/05/01 00:06:13;;;;;;;8.27;7.47;;;;;;;5.93;92.40;102415.00;4994467;28;20437;-46
2022/05/01 00:08:43;;;;;;;7.27;6.67;;;;;;;5.92;92.94;102428.34;4994479;28;20835;-44
2022/05/01 00:11:11;;;;;;;10.60;7.20;;;;;;;5.86;92.80;102421.75;4993817;28;20469;-48
2022/05/01 00:13:40;;;;;;;8.97;7.80;;;;;;;5.84;92.57;102420.16;4994261;28;20569;-49
2022/05/01 00:16:09;;;;;;;10.70;8.37;;;;;;;5.83;93.48;102419.31;4994474;28;20473;-47
2022/05/01 00:18:37;;;;;;;11.97;8.00;;;;;;;5.81;93.07;102418.59;4994208;28;20438;-46
2022/05/01 00:21:05;;;;;;;8.60;7.70;;;;;;;5.80;93.26;102413.44;4993569;28;20808;-44
2022/05/01 00:23:33;;;;;;;7.73;6.93;;;;;;;5.78;93.27;102410.06;4993647;28;20430;-46
2022/05/01 00:26:04;;;;;;;13.03;7.83;;;;;;;5.76;93.34;102407.56;4993820;28;20430;-50
2022/05/01 00:28:32;;;;;;;8.30;7.13;;;;;;;5.74;93.68;102405.97;4994349;28;20529;-44
2022/05/01 00:31:01;;;;;;;8.10;7.50;;;;;;;5.71;93.72;102407.06;4993333;28;20469;-43
2022/05/01 00:36:26;;;;;;;10.43;8.80;;;;;;;5.65;93.37;102404.94;4993925;28;20890;-46
2022/05/01 00:38:55;;;;;;;9.00;8.10;;;;;;;5.61;93.58;102408.81;4994124;28;20847;-42
2022/05/01 00:41:27;;;;;;;7.47;6.87;;;;;;;5.58;93.54;102412.50;4993164;28;21029;-47
2022/05/01 00:44:03;;;;;;;10.00;7.53;;;;;;;5.51;93.80;102414.00;4994007;28;20911;-48
2022/05/01 00:46:32;;;;;;;8.57;7.87;;;;;;;5.46;93.20;102410.03;4993782;28;20459;-44
2022/05/01 00:49:02;;;;;;;8.83;7.90;;;;;;;5.42;94.14;102409.44;4993797;28;20434;-46
2022/05/01 00:51:31;;;;;;;7.80;7.07;;;;;;;5.41;93.65;102401.59;4993026;28;20469;-47
2022/05/01 00:53:59;;;;;;;9.63;7.57;;;;;;;5.39;94.39;102407.03;4993595;28;20484;-44
2022/05/01 00:56:31;;;;;;;8.37;7.50;;;;;;;5.40;94.35;102415.81;4993690;28;20449;-43
2022/05/01 00:58:59;;;;;;;10.20;8.30;;;;;;;5.45;95.01;102408.34;4993465;28;20434;-44
2022/05/01 01:01:26;;;;;;;9.40;8.13;;;;;;;5.49;95.24;102409.78;4992933;28;20477;-51
2022/05/01 01:03:54;;;;;;;7.90;7.23;;;;;;;5.53;95.70;102408.56;4993565;28;20825;-45
2022/05/01 01:06:22;;;;;;;8.20;7.37;;;;;;;5.57;95.64;102402.06;4993515;28;20448;-47
2022/05/01 01:08:50;;;;;;;8.03;7.43;;;;;;;5.62;95.24;102407.81;4993436;28;20437;-45
2022/05/01 01:11:18;;;;;;;8.43;7.63;;;;;;;5.66;95.69;102403.97;4992615;28;20470;-45
2022/05/01 01:13:49;;;;;;;7.83;7.20;;;;;;;5.70;95.60;102402.78;4993024;28;20477;-49
2022/05/01 01:16:17;;;;;;;15.50;8.20;;;;;;;5.75;96.21;102416.47;4993488;28;20434;-46
2022/05/01 01:18:45;;;;;;;8.43;7.80;;;;;;;5.80;95.80;102414.28;4993330;28;20489;-46
2022/05/01 01:21:14;;;;;;;12.03;7.73;;;;;;;5.88;96.42;102413.69;4992555;28;20474;-45
2022/05/01 01:23:42;;;;;;;8.57;7.73;;;;;;;5.94;96.40;102413.19;4993065;28;20426;-45
2022/05/01 01:26:14;;;;;;;8.47;7.67;;;;;;;6.00;95.90;102410.84;4992972;28;20465;-47
2022/05/01 01:28:42;;;;;;;9.50;8.20;;;;;;;6.04;96.38;102409.66;4993229;28;20796;-43
2022/05/01 01:33:59;;;;;;;8.83;7.97;;;;;;;6.13;96.72;102419.47;4992810;28;20475;-43
2022/05/01 01:36:29;;;;;;;11.37;8.40;;;;;;;6.18;96.41;102411.16;4993005;28;20469;-45
2022/05/01 01:38:57;;;;;;;10.60;8.90;;;;;;;6.22;97.16;102422.31;4992745;28;20438;-45
2022/05/01 01:41:28;;;;;;;11.00;8.73;;;;;;;6.28;96.86;102421.81;4991812;28;20472;-46
2022/05/01 01:43:56;;;;;;;9.47;8.50;;;;;;;6.30;96.83;102425.19;4992744;28;20428;-44
2022/05/01 01:46:25;;;;;;;8.93;7.77;;;;;;;6.33;96.99;102424.94;4992678;28;20438;-44
2022/05/01 01:48:52;;;;;;;9.03;8.27;;;;;;;6.36;96.87;102422.84;4992576;28;20430;-43
2022/05/01 01:51:21;;;;;;;11.33;8.67;;;;;;;6.39;96.75;102419.13;4991777;28;20480;-44
2022/05/01 01:53:52;;;;;;;13.00;8.70;;;;;;;6.42;97.57;102421.53;4992850;28;20477;-48
2022/05/01 01:56:20;;;;;;;8.63;7.83;;;;;;;6.42;97.54;102419.69;4992519;28;20947;-43
2022/05/01 01:58:47;;;;;;;9.20;8.50;;;;;;;6.45;96.63;102413.31;4992733;28;20440;-50
2022/05/01 02:01:15;;;;;;;12.67;7.87;;;;;;;6.46;96.63;102421.13;4991773;28;20474;-50
2022/05/01 02:03:43;;;;;;;9.73;8.57;;;;;;;6.46;96.83;102422.94;4992358;28;20430;-50
2022/05/01 02:06:11;;;;;;;10.73;9.10;;;;;;;6.47;96.81;102414.03;4992668;28;20438;-44
2022/05/01 02:08:40;;;;;;;10.17;8.37;;;;;;;6.49;97.35;102422.66;4992608;28;20441;-44
2022/05/01 02:11:10;;;;;;;9.60;8.63;;;;;;;6.48;96.75;102408.56;4991783;28;20472;-47
2022/05/01 02:13:38;;;;;;;11.63;8.80;;;;;;;6.50;96.59;102411.09;4992387;28;20474;-45
2022/05/01 02:16:06;;;;;;;8.87;8.03;;;;;;;6.51;96.83;102412.81;4992345;28;20442;-47
2022/05/01 02:18:34;;;;;;;13.73;10.83;;;;;;;6.51;96.60;102410.16;4992223;28;20440;-43
2022/05/01 02:23:47;;;;;;;10.23;9.20;;;;;;;6.53;97.84;102408.19;4992447;28;20426;-42
2022/05/01 02:26:16;;;;;;;8.90;8.10;;;;;;;6.54;97.66;102405.41;4992368;28;20438;-46
2022/05/01 02:28:43;;;;;;;8.80;8.20;;;;;;;6.54;98.12;102409.91;4992204;28;20429;-46
2022/05/01 02:31:11;;;;;;;17.50;9.47;;;;;;;6.52;97.85;102412.66;4991474;28;20827;-43
2022/05/01 02:33:40;;;;;;;10.37;9.37;;;;;;;6.53;97.92;102410.84;4992254;28;20561;-47
2022/05/01 02:36:07;;;;;;;11.20;8.07;;;;;;;6.57;97.53;102407.78;4992303;28;20441;-43
2022/05/01 02:38:36;;;;;;;10.43;8.40;;;;;;;6.57;98.27;102401.69;4992074;28;20438;-44
2022/05/01 02:41:04;;;;;;;9.00;7.87;;;;;;;6.58;97.49;102412.13;4988293;28;20473;-45
2022/05/01 02:43:33;;;;;;;7.60;7.10;;;;;;;6.57;97.79;102399.84;4989459;28;20453;-49
2022/05/01 02:46:00;;;;;;;8.33;7.77;;;;;;;6.57;98.31;102402.50;4990753;28;20442;-47
2022/05/01 02:48:28;;;;;;;9.73;8.00;;;;;;;6.57;97.82;102399.84;4994730;28;20803;-47
2022/05/01 02:50:56;;;;;;;10.90;8.00;;;;;;;6.54;98.53;102400.09;4995078;28;20469;-48
2022/05/01 02:53:24;;;;;;;12.77;8.77;;;;;;;6.52;98.18;102404.72;4995842;28;20426;-46
2022/05/01 02:55:52;;;;;;;8.77;8.00;;;;;;;6.50;98.32;102389.91;4995674;28;20429;-45
2022/05/01 02:58:19;;;;;;;8.70;7.93;;;;;;;6.46;97.86;102401.72;4995917;28;20434;-48
2022/05/01 03:00:48;;;;;;;8.47;7.40;;;;;;;6.45;97.70;102394.78;4995024;28;20450;-44
2022/05/01 03:03:16;;;;;;;8.60;7.93;;;;;;;6.43;98.09;102392.22;4995720;28;20438;-43
2022/05/01 03:05:44;;;;;;;8.33;7.53;;;;;;;6.42;97.74;102395.84;4995673;28;20429;-45
2022/05/01 03:08:12;;;;;;;8.23;7.53;;;;;;;6.40;97.77;102394.28;4995500;28;20440;-47
2022/05/01 03:10:41;;;;;;;9.20;7.77;;;;;;;6.37;97.67;102390.09;4994789;28;20894;-46
2022/05/01 03:13:08;;;;;;;13.43;8.17;;;;;;;6.33;98.04;102393.16;4995382;28;20437;-45
2022/05/01 03:15:36;;;;;;;7.93;7.23;;;;;;;6.29;97.70;102391.72;4995308;28;20469;-46
2022/05/01 03:23:35;;;;;;;8.83;8.07;;;;;;;6.20;97.50;102385.38;4995221;28;20437;-46
2022/05/01 03:26:03;;;;;;;12.87;8.30;;;;;;;6.18;97.42;102383.84;4995374;28;20430;-45
2022/05/01 03:28:31;;;;;;;9.37;8.47;;;;;;;6.15;97.49;102381.44;4995272;28;20816;-46
2022/05/01 03:30:58;;;;;;;9.17;8.30;;;;;;;6.12;97.76;102388.66;4994346;28;20461;-42
2022/05/01 03:33:27;;;;;;;7.80;6.83;;;;;;;6.10;97.41;102385.31;4994941;28;20438;-44
2022/05/01 03:35:57;;;;;;;9.07;8.17;;;;;;;6.08;97.96;102391.69;4995198;28;20490;-48
2022/05/01 03:38:24;;;;;;;8.50;7.90;;;;;;;6.03;97.22;102392.06;4995129;28;20777;-43
2022/05/01 03:40:53;;;;;;;8.90;8.30;;;;;;;5.99;97.70;102384.50;4994306;28;20931;-47
2022/05/01 03:43:24;;;;;;;8.30;7.50;;;;;;;5.96;97.55;102387.41;4994934;28;20422;-47
2022/05/01 03:45:52;;;;;;;8.47;7.97;;;;;;;5.93;97.22;102388.50;4995021;28;20517;-48
2022/05/01 03:48:19;;;;;;;9.73;8.33;;;;;;;5.90;97.46;102393.22;4993524;28;20500;-48
2022/05/01 03:50:51;;;;;;;8.50;7.80;;;;;;;5.86;96.97;102389.13;4991588;28;20555;-46
2022/05/01 03:53:19;;;;;;;10.03;9.03;;;;;;;5.83;97.19;102397.28;4992355;28;20441;-47
2022/05/01 03:55:46;;;;;;;8.63;7.97;;;;;;;5.78;97.28;102387.09;4993886;28;20482;-47
2022/05/01 03:58:14;;;;;;;12.00;9.63;;;;;;;5.75;97.11;102387.34;4993940;28;20444;-46
2022/05/01 04:00:44;;;;;;;14.33;8.40;;;;;;;5.72;97.39;102395.53;4993102;28;20998;-46
2022/05/01 04:03:12;;;;;;;12.40;8.47;;;;;;;5.70;97.12;102389.53;4994711;28;20441;-47
2022/05/01 04:05:40;;;;;;;10.17;9.27;;;;;;;5.69;97.27;102398.44;4994628;28;20437;-45
2022/05/01 04:08:10;;;;;;;9.63;8.73;;;;;;;5.70;97.11;102402.78;4994457;28;20965;-44
2022/05/01 04:10:38;;;;;;;10.40;9.47;;;;;;;5.72;97.66;102400.81;4994168;28;20537;-51
2022/05/01 04:13:06;;;;;;;9.73;8.93;;;;;;;5.76;97.46;102407.56;4993932;28;20434;-44
2022/05/01 04:15:36;;;;;;;14.67;10.03;;;;;;;5.81;97.26;102400.09;4994157;28;20473;-47
2022/05/01 04:18:04;;;;;;;9.20;8.60;;;;;;;5.89;97.86;102402.97;4994430;28;20438;-44
2022/05/01 04:20:33;;;;;;;9.57;8.67;;;;;;;6.02;97.79;102403.66;4994024;28;20433;-49
2022/05/01 04:23:02;;;;;;;10.23;9.40;;;;;;;6.16;97.64;102404.28;4993722;28;20470;-47
2022/05/01 04:25:31;;;;;;;9.07;8.37;;;;;;;6.33;97.97;102399.25;4994007;28;20524;-44
2022/05/01 04:28:01;;;;;;;9.13;8.30;;;;;;;6.68;97.67;102399.78;4994309;28;20800;-49
2022/05/01 04:30:31;;;;;;;10.37;9.30;;;;;;;6.94;97.89;102389.59;4993987;28;20433;-45
2022/05/01 04:33:00;;;;;;;13.90;7.53;;;;;;;7.50;98.01;102404.97;4993539;28;20469;-46
2022/05/01 04:35:29;;;;;;;8.30;7.60;;;;;;;8.03;98.19;102401.03;4993866;28;20473;-47
2022/05/01 04:37:59;;;;;;;8.50;7.70;;;;;;;8.65;98.10;102400.56;4993784;28;20442;-48
2022/05/01 04:40:28;;;;;;;8.00;7.40;;;;;;;9.35;98.04;102402.66;4993762;28;20497;-51
2022/05/01 04:43:04;;;;;;;6.97;6.37;;;;;;;10.03;98.10;102395.06;4993351;28;20462;-46
2022/05/01 04:45:32;;;;;;;6.67;6.07;;;;;;;10.57;96.55;102401.19;4993829;28;20426;-47
2022/05/01 04:48:01;;;;;;;7.23;6.63;;;;;;;11.17;92.02;102400.19;4993677;28;20441;-48
2022/05/01 04:50:29;;;;;;;6.47;5.97;;;;;;;11.22;84.68;102400.56;4993403;28;20519;-47
2022/05/01 04:52:57;;;;;;;5.67;5.37;;;;;;;11.25;81.44;102400.22;4993226;28;20485;-47
2022/05/01 04:55:24;;;;;;;7.87;6.20;;;;;;;11.01;78.54;102402.78;4993498;28;21010;-46
2022/05/01 04:57:52;;;;;;;6.73;6.27;;;;;;;10.84;77.17;102409.84;4993655;28;20430;-50
2022/05/01 05:00:21;;;;;;;7.30;6.73;;;;;;;10.76;77.35;102415.16;4993244;28;20461;-52
2022/05/01 05:02:50;;;;;;;8.47;7.67;;;;;;;10.62;76.54;102414.88;4992974;28;20470;-47
2022/05/01 05:05:20;;;;;;;7.47;6.87;;;;;;;10.54;76.17;102423.69;4993286;28;20461;-47
2022/05/01 05:07:48;;;;;;;9.20;7.47;;;;;;;10.48;77.03;102417.09;4993592;28;20457;-46
2022/05/01 05:10:16;;;;;;;6.90;6.17;;;;;;;10.48;77.48;102425.13;4992699;28;20426;-46
2022/05/01 05:12:45;;;;;;;9.03;7.07;;;;;;;10.52;77.51;102417.63;4992804;28;20462;-46
2022/05/01 05:15:15;;;;;;;7.10;6.70;;;;;;;10.77;78.52;102424.84;4993174;28;20469;-49
2022/05/01 05:17:45;;;;;;;8.90;7.30;;;;;;;11.51;81.87;102424.19;4993200;28;20430;-48
2022/05/01 05:20:13;;;;;;;7.13;6.43;;;;;;;11.79;79.45;102430.16;4992882;28;20445;-44
2022/05/01 05:22:41;;;;;;;6.30;5.80;;;;;;;12.23;76.94;102420.03;4992731;28;20454;-47
2022/05/01 05:25:10;;;;;;;7.70;6.20;;;;;;;12.36;71.13;102417.69;4993115;28;20425;-45
2022/05/01 05:27:38;;;;;;;7.00;6.40;;;;;;;12.32;70.70;102419.88;4993080;28;20438;-49
2022/05/01 05:30:08;;;;;;;7.03;6.33;;;;;;;12.52;70.98;102418.50;4992834;28;20437;-45
2022/05/01 05:32:36;;;;;;;7.40;6.80;;;;;;;12.74;68.80;102420.50;4992304;28;20561;-47
2022/05/01 05:35:06;;;;;;;7.43;6.33;;;;;;;13.25;70.61;102427.25;4992984;28;20777;-44
2022/05/01 05:37:34;;;;;;;6.87;6.30;;;;;;;13.52;64.71;102415.25;4992934;28;20742;-46
2022/05/01 05:40:01;;;;;;;6.50;5.90;;;;;;;13.65;62.64;102418.19;4992861;28;20430;-46
2022/05/01 05:42:29;;;;;;;6.67;6.07;;;;;;;13.84;62.02;102415.06;4992078;28;20466;-47
2022/05/01 05:44:57;;;;;;;7.43;6.60;;;;;;;14.16;62.35;102421.19;4992899;28;20430;-49
2022/05/01 05:47:24;;;;;;;7.20;6.60;;;;;;;14.63;61.13;102423.69;4992709;28;20445;-48
2022/05/01 05:49:52;;;;;;;6.87;6.37;;;;;;;14.97;60.40;102418.63;4992795;28;20438;-45
2022/05/01 05:52:23;;;;;;;6.83;6.13;;;;;;;15.18;55.92;102420.56;4991945;28;20454;-46
2022/05/01 05:54:50;;;;;;;6.90;6.50;;;;;;;15.23;57.23;102424.34;4992678;28;20445;-45
2022/05/01 05:57:18;;;;;;;8.40;7.70;;;;;;;15.34;57.27;102423.91;4992746;28;20480;-47
2022/05/01 05:59:45;;;;;;;8.43;6.90;;;;;;;15.26;56.84;102420.50;4992655;28;20434;-47
2022/05/01 06:02:14;;;;;;;7.33;6.60;;;;;;;15.19;56.47;102419.56;4991747;28;20465;-47
2022/05/01 06:04:42;;;;;;;8.13;5.80;;;;;;;15.65;56.05;102414.81;4992533;28;20440;-49
2022/05/01 06:07:09;;;;;;;7.50;7.00;;;;;;;15.48;55.82;102423.09;4992448;28;20440;-48
2022/05/01 06:09:38;;;;;;;6.30;5.90;;;;;;;15.72;54.44;102418.38;4992200;28;20429;-48
2022/05/01 06:12:09;;;;;;;6.80;6.50;;;;;;;16.12;55.90;102422.34;4991652;28;20462;-46
2022/05/01 06:14:37;;;;;;;6.83;6.33;;;;;;;16.53;54.17;102426.03;4992506;28;20451;-49
2022/05/01 06:17:04;;;;;;;7.13;6.60;;;;;;;17.07;54.35;102421.66;4992432;28;20473;-48
2022/05/01 06:19:32;;;;;;;6.40;6.10;;;;;;;17.06;50.72;102422.69;4992246;28;20441;-48
2022/05/01 06:21:59;;;;;;;8.53;6.63;;;;;;;17.08;50.31;102425.22;4991919;28;20488;-49
2022/05/01 06:24:27;;;;;;;6.97;6.50;;;;;;;17.25;53.10;102420.31;4996645;28;20433;-48
2022/05/01 06:26:56;;;;;;;6.83;6.47;;;;;;;17.42;52.56;102419.75;4996541;28;20437;-47
2022/05/01 06:29:24;;;;;;;9.43;6.57;;;;;;;17.50;50.12;102414.19;4996341;28;20437;-46
2022/05/01 06:31:52;;;;;;;7.40;6.87;;;;;;;17.53;50.71;102412.97;4995528;28;20469;-45
2022/05/01 06:34:20;;;;;;;7.00;6.60;;;;;;;17.14;51.37;102419.81;4996275;28;20433;-47
2022/05/01 06:36:47;;;;;;;7.00;6.60;;;;;;;17.06;51.57;102428.09;4995971;28;20477;-46
2022/05/01 06:39:15;;;;;;;7.00;6.43;;;;;;;17.24;52.64;102424.88;4995994;28;20444;-46
2022/05/01 06:41:43;;;;;;;7.50;6.37;;;;;;;17.07;53.44;102426.22;4995246;28;20477;-47
2022/05/01 06:44:12;;;;;;;6.30;5.80;;;;;;;16.32;52.28;102429.56;4996142;28;20795;-49
2022/05/01 06:46:39;;;;;;;6.33;5.93;;;;;;;15.96;52.85;102434.19;4995910;28;20796;-46
2022/05/01 06:49:07;;;;;;;6.23;5.97;;;;;;;15.28;53.40;102437.25;4995813;28;20810;-47
2022/05/01 06:51:35;;;;;;;6.60;5.93;;;;;;;15.00;55.21;102429.00;4995330;28;20552;-48
2022/05/01 06:54:06;;;;;;;6.33;5.93;;;;;;;14.24;57.10;102432.72;4996009;28;20603;-44
2022/05/01 06:56:34;;;;;;;6.33;5.73;;;;;;;13.93;60.00;102431.09;4995962;28;20473;-45
2022/05/01 06:59:02;;;;;;;6.03;5.73;;;;;;;13.74;60.79;102443.94;4995764;28;20441;-47
2022/05/01 07:01:31;;;;;;;7.13;6.50;;;;;;;13.46;61.50;102431.19;4994890;28;20473;-45
2022/05/01 07:03:59;;;;;;;6.47;6.07;;;;;;;13.38;62.68;102429.38;4995774;28;20434;-43
2022/05/01 07:06:26;;;;;;;12.63;6.63;;;;;;;13.16;63.05;102441.69;4995964;28;20464;-48
2022/05/01 07:08:54;;;;;;;7.40;6.70;;;;;;;13.10;62.81;102428.13;4995503;28;20441;-44
2022/05/01 07:11:21;;;;;;;6.50;6.10;;;;;;;13.24;63.02;102435.44;4994814;28;20474;-47
2022/05/01 07:13:49;;;;;;;6.20;5.80;;;;;;;13.09;62.02;102432.66;4995440;28;20430;-47
2022/05/01 07:16:19;;;;;;;6.67;6.17;;;;;;;13.27;61.45;102432.44;4995286;28;20500;-48
2022/05/01 07:18:48;;;;;;;5.87;5.33;;;;;;;13.77;62.37;102438.22;4995517;28;20430;-46
2022/05/01 07:21:16;;;;;;;7.97;7.27;;;;;;;13.61;59.80;102434.81;4994656;28;20832;-47
2022/05/01 07:23:44;;;;;;;6.40;6.10;;;;;;;14.15;59.51;102432.97;4995447;28;20438;-49
2022/05/01 07:26:11;;;;;;;6.43;6.13;;;;;;;14.93;57.98;102436.97;4995270;28;20436;-44
2022/05/01 07:28:39;;;;;;;6.70;6.33;;;;;;;15.67;54.93;102440.47;4995188;28;20434;-46
2022/05/01 07:31:07;;;;;;;6.60;6.20;;;;;;;16.17;52.91;102436.03;4994383;28;20835;-48
2022/05/01 07:33:35;;;;;;;8.10;7.30;;;;;;;16.69;54.26;102441.09;4994894;28;20508;-45
2022/05/01 07:36:04;;;;;;;11.67;7.20;;;;;;;17.18;52.63;102441.84;4995101;28;20430;-46
2022/05/01 07:38:32;;;;;;;6.90;6.57;;;;;;;17.01;49.08;102435.94;4995115;28;20441;-46
2022/05/01 07:41:00;;;;;;;5.93;5.73;;;;;;;16.66;49.08;102445.03;4994233;28;20474;-45
2022/05/01 07:43:27;;;;;;;6.13;5.80;;;;;;;16.84;49.95;102439.97;4994829;28;20433;-49
2022/05/01 07:45:55;;;;;;;7.97;6.47;;;;;;;16.80;49.70;102449.47;4995084;28;20445;-46
2022/05/01 07:48:23;;;;;;;6.40;5.90;;;;;;;16.85;51.70;102444.31;4994635;28;20484;-45
2022/05/01 07:50:50;;;;;;;6.07;5.47;;;;;;;16.85;51.18;102440.78;4993992;28;20468;-50
2022/05/01 07:53:19;;;;;;;5.73;5.40;;;;;;;16.61;51.19;102442.06;4994683;28;20438;-47
2022/05/01 07:55:47;;;;;;;5.13;4.93;;;;;;;16.43;49.79;102438.97;4994545;28;20448;-47
2022/05/01 07:58:14;;;;;;;5.57;5.27;;;;;;;16.05;48.97;102438.41;4994375;28;20499;-46
2022/05/01 08:00:42;;;;;;;5.33;4.93;;;;;;;15.88;50.05;102437.84;4993770;28;20457;-48
2022/05/01 08:05:54;;;;;;;4.40;4.03;;;;;;;16.05;50.56;102443.78;4994485;28;20437;-50
2022/05/01 08:08:23;;;;;;;4.60;4.33;;;;;;;16.11;48.99;102436.81;4994336;28;20430;-47
2022/05/01 08:10:51;;;;;;;4.47;4.20;;;;;;;16.12;49.77;102433.94;4993733;28;20453;-44
2022/05/01 08:13:19;;;;;;;4.23;4.00;;;;;;;15.97;48.08;102430.47;4994212;28;20537;-47
2022/05/01 08:15:46;;;;;;;3.30;3.10;;;;;;;16.07;46.23;102432.84;4994297;28;20449;-45
2022/05/01 08:21:08;;;;;;;3.07;2.93;;;;;;;16.32;47.35;102429.56;4993358;28;20457;-44
2022/05/01 08:23:39;;;;;;;3.33;3.13;;;;;;;16.22;46.27;102433.63;4993967;28;20938;-47
2022/05/01 08:26:10;;;;;;;3.40;3.20;;;;;;;16.27;48.44;102434.72;4994143;28;20811;-50
2022/05/01 08:28:41;;;;;;;4.93;3.47;;;;;;;16.47;47.60;102430.31;4994099;28;20430;-51
2022/05/01 08:31:09;;;;;;;3.40;3.17;;;;;;;16.24;44.90;102429.72;4993072;28;20612;-46
2022/05/01 08:33:39;;;;;;;2.90;2.80;;;;;;;16.31;46.72;102432.44;4994184;28;20434;-47
2022/05/01 08:36:07;;;;;;;4.43;3.80;;;;;;;16.60;46.27;102429.63;4994034;28;20449;-44
2022/05/01 08:38:37;;;;;;;2.87;2.77;;;;;;;17.01;45.45;102425.16;4993840;28;20477;-51
2022/05/01 08:41:08;;;;;;;3.10;2.90;;;;;;;17.29;44.09;102422.41;4993185;28;21372;-45
2022/05/01 08:43:36;;;;;;;3.07;2.90;;;;;;;17.13;39.56;102420.88;4993884;28;20438;-46
2022/05/01 08:46:29;;;;;;;4.40;2.90;;;;;;;16.29;40.19;102423.72;4991420;28;20958;-47
2022/05/01 08:49:01;;;;;;;2.70;2.50;;;;;;;16.69;41.77;102424.94;4987118;28;20430;-47
2022/05/01 08:51:32;;;;;;;2.70;2.50;;;;;;;16.79;41.95;102426.25;4992557;28;20995;-45
2022/05/01 08:54:03;;;;;;;3.63;2.40;;;;;;;16.78;41.85;102424.59;4993526;28;20521;-46
2022/05/01 08:56:34;;;;;;;2.70;2.50;;;;;;;16.94;40.07;102426.13;4993426;28;20446;-48
2022/05/01 08:59:02;;;;;;;2.37;2.27;;;;;;;17.00;39.95;102423.47;4993568;28;20874;-45
2022/05/01 09:01:31;;;;;;;2.37;2.17;;;;;;;17.12;39.68;102418.38;4992307;28;20837;-46
2022/05/01 09:04:00;;;;;;;2.73;2.63;;;;;;;17.27;37.75;102418.22;4993381;28;20434;-47
2022/05/01 09:06:28;;;;;;;2.50;2.40;;;;;;;17.41;39.19;102415.41;4993266;28;20438;-47
2022/05/01 09:08:57;;;;;;;2.37;2.27;;;;;;;17.55;38.63;102417.16;4993162;28;20438;-47
2022/05/01 09:14:11;;;;;;;2.57;2.37;;;;;;;17.68;36.54;102409.09;4992971;28;20434;-48
2022/05/01 09:16:39;;;;;;;2.50;2.30;;;;;;;17.73;38.08;102416.59;4993134;28;20444;-46
2022/05/01 09:19:07;;;;;;;2.53;2.43;;;;;;;17.62;35.38;102411.78;4992930;28;20840;-46
2022/05/01 09:21:49;;;;;;;2.20;2.10;;;;;;;17.36;35.62;102409.78;4992203;28;20484;-48
2022/05/01 09:24:26;;;;;;;2.20;2.10;;;;;;;17.57;35.40;102411.56;4993159;28;20430;-44
2022/05/01 09:26:53;;;;;;;2.90;2.30;;;;;;;17.28;36.56;102419.91;4992890;28;20429;-50
2022/05/01 09:29:23;;;;;;;2.50;2.30;;;;;;;16.88;35.85;102411.59;4992480;28;20533;-51
2022/05/01 09:31:52;;;;;;;2.27;2.07;;;;;;;16.58;35.35;102415.50;4991777;28;20470;-49
2022/05/01 09:34:21;;;;;;;2.23;2.13;;;;;;;16.33;34.94;102414.25;4991497;28;20437;-48
2022/05/01 09:36:49;;;;;;;2.17;2.07;;;;;;;15.84;35.34;102406.09;4992467;28;20449;-47
2022/05/01 09:39:20;;;;;;;2.73;2.53;;;;;;;15.77;37.11;102406.03;4992754;28;20474;-46
2022/05/01 09:41:49;;;;;;;2.93;2.50;;;;;;;16.14;37.62;102404.13;4991772;28;20474;-48
2022/05/01 09:44:20;;;;;;;3.20;2.30;;;;;;;16.23;35.48;102401.13;4992217;28;20444;-43
2022/05/01 09:46:50;;;;;;;2.50;2.40;;;;;;;16.24;36.71;102404.66;4992517;28;20441;-45
2022/05/01 09:49:19;;;;;;;2.30;2.20;;;;;;;16.75;37.30;102399.91;4992447;28;20516;-47
2022/05/01 09:51:54;;;;;;;2.40;2.30;;;;;;;17.19;37.02;102394.97;4991619;28;20481;-46
2022/05/01 09:54:25;;;;;;;2.50;2.40;;;;;;;17.45;34.59;102399.66;4992232;28;20517;-47
2022/05/01 09:56:57;;;;;;;2.90;2.70;;;;;;;16.79;33.77;102395.78;4992059;28;20467;-47
2022/05/01 09:59:27;;;;;;;2.47;2.37;;;;;;;16.78;33.59;102394.13;4991901;28;20484;-46
2022/05/01 10:01:58;;;;;;;2.43;2.33;;;;;;;16.41;34.75;102393.41;4991505;28;20686;-44
2022/05/01 10:04:26;;;;;;;2.00;1.90;;;;;;;16.38;36.15;102398.34;4992369;28;20426;-47
2022/05/01 10:06:56;;;;;;;2.33;2.20;;;;;;;16.34;36.27;102389.81;4992046;28;20430;-44
2022/05/01 10:09:26;;;;;;;2.20;2.10;;;;;;;16.15;35.40;102393.19;4992000;28;20429;-44
2022/05/01 10:11:55;;;;;;;2.37;2.27;;;;;;;16.84;36.64;102396.88;4990810;28;20915;-46
2022/05/01 10:14:23;;;;;;;2.00;1.90;;;;;;;17.53;34.06;102391.41;4992107;28;20429;-45
2022/05/01 10:16:54;;;;;;;2.40;2.30;;;;;;;17.46;34.97;102391.38;4992237;28;20437;-44
2022/05/01 10:19:25;;;;;;;2.60;2.20;;;;;;;17.35;33.38;102385.72;4992143;28;20863;-47
2022/05/01 10:21:56;;;;;;;2.23;2.00;;;;;;;17.27;33.95;102386.72;4991164;28;21053;-46
2022/05/01 10:24:25;;;;;;;2.60;2.40;;;;;;;17.22;33.95;102393.75;4992115;28;20541;-47
2022/05/01 10:26:55;;;;;;;2.30;2.20;;;;;;;17.09;32.58;102394.50;4991765;28;20433;-42
2022/05/01 10:29:40;;;;;;;2.77;2.50;;;;;;;17.45;33.12;102391.56;4991962;28;20434;-47
2022/05/01 10:32:34;;;;;;;2.53;2.33;;;;;;;17.63;32.54;102398.09;4991144;28;20497;-44
2022/05/01 10:35:51;;;;;;;2.50;2.30;;;;;;;17.82;32.08;102392.94;4991908;28;20438;-45
2022/05/01 10:38:26;;;;;;;5.63;2.50;;;;;;;17.79;35.53;102390.66;4991711;28;20473;-45
2022/05/01 10:40:56;;;;;;;2.57;2.47;;;;;;;17.94;34.16;102388.63;4990778;28;20586;-43
2022/05/01 10:43:25;;;;;;;2.93;2.10;;;;;;;17.87;32.83;102391.31;4992067;28;20859;-44
2022/05/01 10:45:53;;;;;;;3.03;2.83;;;;;;;17.98;35.19;102382.59;4991785;28;20456;-48
2022/05/01 10:48:36;;;;;;;2.20;2.10;;;;;;;18.08;29.39;102379.50;4991625;28;20432;-48
2022/05/01 10:51:39;;;;;;;2.50;2.40;;;;;;;18.89;30.72;102375.50;4991062;28;20472;-48
2022/05/01 10:54:35;;;;;;;2.60;2.50;;;;;;;18.51;28.90;102375.38;4989247;28;20437;-46
2022/05/01 10:57:11;;;;;;;2.33;2.23;;;;;;;18.49;29.67;102374.75;4991476;28;20433;-48
2022/05/01 10:59:43;;;;;;;2.57;2.37;;;;;;;18.69;29.63;102382.84;4992148;28;20477;-50
2022/05/01 11:02:35;;;;;;;1.63;1.53;;;;;;;18.70;32.42;102377.22;4991219;28;20469;-47
2022/05/01 11:05:03;;;;;;;1.70;1.60;;;;;;;18.80;33.38;102374.09;4991910;28;20509;-44
2022/05/01 11:07:34;;;;;;;1.90;1.80;;;;;;;18.82;31.90;102368.47;4991702;28;20444;-45
2022/05/01 11:10:06;;;;;;;2.10;2.00;;;;;;;18.78;30.95;102363.50;4994921;28;20449;-43
2022/05/01 11:12:35;;;;;;;2.27;1.90;;;;;;;18.56;29.26;102363.94;4994836;28;20469;-46
2022/05/01 11:15:06;;;;;;;2.50;1.80;;;;;;;18.24;28.88;102363.72;4995388;28;20803;-43
2022/05/01 11:17:55;;;;;;;2.30;2.20;;;;;;;19.24;28.84;102363.31;4995336;28;20441;-48
2022/05/01 11:20:32;;;;;;;2.00;1.77;;;;;;;19.54;30.02;102365.50;4995126;28;20440;-46
2022/05/01 11:23:28;;;;;;;2.20;2.10;;;;;;;19.83;28.90;102359.53;4992548;28;20461;-45
2022/05/01 11:26:09;;;;;;;2.60;2.37;;;;;;;19.27;29.01;102365.59;4994620;28;20441;-44
2022/05/01 11:29:02;;;;;;;2.20;2.00;;;;;;;18.74;33.80;102358.72;4994542;28;20445;-47
2022/05/01 11:31:46;;;;;;;4.07;2.30;;;;;;;17.94;33.06;102353.53;4994407;28;20469;-46
2022/05/01 11:34:54;;;;;;;2.20;2.10;;;;;;;18.17;32.57;102362.06;4994999;28;20923;-46
2022/05/01 11:37:24;;;;;;;2.50;2.40;;;;;;;18.37;30.84;102362.06;4995246;28;21040;-44
2022/05/01 11:40:20;;;;;;;2.30;2.10;;;;;;;18.19;33.46;102357.25;4994426;28;20469;-44
2022/05/01 11:42:50;;;;;;;2.30;2.20;;;;;;;17.80;33.61;102357.25;4994288;28;20863;-44
2022/05/01 11:45:19;;;;;;;2.30;2.20;;;;;;;17.77;33.24;102353.06;4994705;28;20927;-49
2022/05/01 11:47:51;;;;;;;4.90;2.30;;;;;;;17.78;33.70;102351.22;4987119;28;20426;-45
2022/05/01 11:50:21;;;;;;;2.07;1.97;;;;;;;17.99;33.33;102348.34;4994194;28;20425;-48
2022/05/01 11:52:54;;;;;;;2.43;2.30;;;;;;;18.20;33.57;102345.44;4994217;28;20458;-48
2022/05/01 12:02:24;;;;;;;2.37;2.27;;;;;;;17.59;33.28;102350.97;4994146;28;20516;-48
2022/05/01 12:03:54;;;;;;;2.40;2.27;;;;;;;17.53;33.32;102353.63;4994343;28;20433;-44
2022/05/01 12:06:26;;;;;;;3.80;2.10;;;;;;;17.64;33.73;102344.97;4994535;28;20448;-43
2022/05/01 12:08:53;;;;;;;2.30;2.20;;;;;;;17.40;32.61;102342.78;4993937;28;20434;-45